createdAt,value
2022-12-08T00:02:23.804Z,16.05
2022-12-08T00:05:45.948Z,13.47
2022-12-08T00:09:07.864Z,13.93
2022-12-08T00:12:18.448Z,14.95
2022-12-08T00:15:21.097Z,16.42
2022-12-08T00:18:25.255Z,14.57
2022-12-08T00:21:29.097Z,16.15
2022-12-08T00:24:42.446Z,15.65
2022-12-08T00:27:45.360Z,15.18
2022-12-08T00:30:48.477Z,13.47
2022-12-08T00:33:51.235Z,14.77
2022-12-08T00:36:54.198Z,14.98
2022-12-08T00:39:56.935Z,15.27
2022-12-08T00:43:01.488Z,14.75
2022-12-08T00:46:04.247Z,16.27
2022-12-08T00:49:07.353Z,15.90
2022-12-08T00:52:10.279Z,14.60
2022-12-08T00:55:13.511Z,15.07
2022-12-08T00:58:16.188Z,13.63
2022-12-08T01:01:19.256Z,13.10
2022-12-08T01:04:22.277Z,14.50
2022-12-08T01:07:28.325Z,14.48
2022-12-08T01:10:31.040Z,15.10
2022-12-08T01:13:34.920Z,13.02
2022-12-08T01:16:37.583Z,15.63
2022-12-08T01:19:40.635Z,15.43
2022-12-08T01:22:44.447Z,15.40
2022-12-08T01:25:47.471Z,15.30
2022-12-08T01:28:50.307Z,15.10
2022-12-08T01:31:53.309Z,17.00
2022-12-08T01:34:55.898Z,18.55
2022-12-08T01:37:58.863Z,18.50
2022-12-08T01:41:01.564Z,16.67
2022-12-08T01:44:16.443Z,17.85
2022-12-08T01:47:21.448Z,16.70
2022-12-08T01:50:25.399Z,15.70
2022-12-08T01:53:32.962Z,15.95
2022-12-08T01:57:01.295Z,15.98
2022-12-08T02:00:11.535Z,14.55
2022-12-08T02:03:21.437Z,17.20
2022-12-08T02:06:26.384Z,16.17
2022-12-08T02:09:29.443Z,16.58
2022-12-08T02:12:32.283Z,16.52
2022-12-08T02:16:10.679Z,17.12
2022-12-08T02:19:30.821Z,15.77
2022-12-08T02:22:45.618Z,15.98
2022-12-08T02:26:16.043Z,15.43
2022-12-08T02:29:28.125Z,16.98
2022-12-08T02:32:56.363Z,15.57
2022-12-08T02:36:21.357Z,15.85
2022-12-08T02:39:47.133Z,16.70
2022-12-08T02:43:07.848Z,15.52
2022-12-08T02:46:18.114Z,16.37
2022-12-08T02:49:21.723Z,15.20
2022-12-08T02:52:24.432Z,15.43
2022-12-08T02:55:27.472Z,14.90
2022-12-08T02:58:46.620Z,17.12
2022-12-08T03:02:08.104Z,16.77
2022-12-08T03:05:25.617Z,16.27
2022-12-08T03:08:43.888Z,15.38
2022-12-08T03:12:20.811Z,17.48
2022-12-08T03:15:25.262Z,16.48
2022-12-08T03:18:31.568Z,16.67
2022-12-08T03:21:36.389Z,16.23
2022-12-08T03:24:42.617Z,17.15
2022-12-08T03:27:46.436Z,17.05
2022-12-08T03:30:54.079Z,16.60
2022-12-08T03:33:59.652Z,17.63
2022-12-08T03:37:02.692Z,17.48
2022-12-08T03:40:08.069Z,18.62
2022-12-08T03:43:11.913Z,14.30
2022-12-08T03:46:16.580Z,15.25
2022-12-08T03:49:19.257Z,16.93
2022-12-08T03:52:22.246Z,15.10
2022-12-08T03:55:25.052Z,15.68
2022-12-08T03:58:29.897Z,15.77
2022-12-08T04:01:35.692Z,14.37
2022-12-08T04:04:39.698Z,16.80
2022-12-08T04:07:45.270Z,14.13
2022-12-08T04:10:48.320Z,16.80
2022-12-08T04:13:51.026Z,14.80
2022-12-08T04:16:54.138Z,14.17
2022-12-08T04:19:58.011Z,12.77
2022-12-08T04:23:01.002Z,13.32
2022-12-08T04:26:05.693Z,12.37
2022-12-08T04:29:08.783Z,13.07
2022-12-08T04:32:12.423Z,13.17
2022-12-08T04:35:15.569Z,11.00
2022-12-08T04:38:18.263Z,12.85
2022-12-08T04:41:22.478Z,12.77
2022-12-08T04:44:25.082Z,13.15
2022-12-08T04:47:28.105Z,12.23
2022-12-08T04:50:30.741Z,12.23
2022-12-08T04:53:33.902Z,11.85
2022-12-08T04:56:36.976Z,12.27
2022-12-08T04:59:41.276Z,13.10
2022-12-08T05:02:43.959Z,14.20
2022-12-08T05:05:46.950Z,14.68
2022-12-08T05:08:49.532Z,13.70
2022-12-08T05:11:52.576Z,12.80
2022-12-08T05:14:55.206Z,14.38
2022-12-08T05:17:58.211Z,13.90
2022-12-08T05:21:01.068Z,13.00
2022-12-08T05:24:04.350Z,13.93
2022-12-08T05:27:07.162Z,15.80
2022-12-08T05:30:10.449Z,14.87
2022-12-08T05:33:13.846Z,14.60
2022-12-08T05:36:17.466Z,16.35
2022-12-08T05:39:20.120Z,15.43
2022-12-08T05:42:25.168Z,15.77
2022-12-08T05:45:28.058Z,16.10
2022-12-08T05:48:33.612Z,17.23
2022-12-08T05:51:36.303Z,17.17
2022-12-08T05:54:39.371Z,15.50
2022-12-08T05:57:42.034Z,15.90
2022-12-08T06:00:47.448Z,16.95
2022-12-08T06:03:50.994Z,13.37
2022-12-08T06:06:53.800Z,13.38
2022-12-08T06:09:56.806Z,12.60
2022-12-08T06:12:59.621Z,13.25
2022-12-08T06:16:08.686Z,16.25
2022-12-08T06:19:12.472Z,15.53
2022-12-08T06:22:15.535Z,14.60
2022-12-08T06:25:18.359Z,14.85
2022-12-08T06:28:21.293Z,19.77
2022-12-08T06:31:26.733Z,17.58
2022-12-08T06:34:29.703Z,21.70
2022-12-08T06:37:32.518Z,35.20
2022-12-08T06:40:35.500Z,34.67
2022-12-08T06:43:38.705Z,27.08
2022-12-08T06:46:42.001Z,15.13
2022-12-08T06:49:44.765Z,16.57
2022-12-08T06:52:59.577Z,23.58
2022-12-08T06:56:08.187Z,24.45
2022-12-08T06:59:11.262Z,22.45
2022-12-08T07:02:14.147Z,22.67
2022-12-08T07:05:17.400Z,19.47
2022-12-08T07:08:20.149Z,15.73
2022-12-08T07:11:23.976Z,12.25
2022-12-08T07:14:26.784Z,22.40
2022-12-08T07:17:29.764Z,15.95
2022-12-08T07:20:32.598Z,20.60
2022-12-08T07:23:36.023Z,36.90
2022-12-08T07:26:40.080Z,17.90
2022-12-08T07:29:43.040Z,17.95
2022-12-08T07:32:46.045Z,20.20
2022-12-08T07:35:59.348Z,13.10
2022-12-08T07:39:04.850Z,22.15
2022-12-08T07:42:07.909Z,24.52
2022-12-08T07:45:12.407Z,26.00
2022-12-08T07:48:17.308Z,15.35
2022-12-08T07:51:20.228Z,9.70
2022-12-08T07:54:23.242Z,12.30
2022-12-08T07:57:26.056Z,24.55
2022-12-08T08:00:29.070Z,18.98
2022-12-08T08:03:32.648Z,13.62
2022-12-08T08:06:36.536Z,17.40
2022-12-08T08:09:39.650Z,26.67
2022-12-08T08:12:42.330Z,12.75
2022-12-08T08:15:45.905Z,9.07
2022-12-08T08:18:50.514Z,10.38
2022-12-08T08:21:53.558Z,10.47
2022-12-08T08:24:56.212Z,9.97
2022-12-08T08:27:59.242Z,16.92
2022-12-08T08:31:02.724Z,12.45
2022-12-08T08:34:06.796Z,11.57
2022-12-08T08:37:09.612Z,11.10
2022-12-08T08:40:12.976Z,10.47
2022-12-08T08:43:32.931Z,16.87
2022-12-08T08:46:40.958Z,10.57
2022-12-08T08:49:43.657Z,7.12
2022-12-08T08:52:46.616Z,9.73
2022-12-08T08:55:49.932Z,8.60
2022-12-08T08:58:54.148Z,9.85
2022-12-08T09:01:56.937Z,10.73
2022-12-08T09:05:00.430Z,11.80
2022-12-08T09:08:03.316Z,18.63
2022-12-08T09:11:06.518Z,11.07
2022-12-08T09:14:12.452Z,12.00
2022-12-08T09:17:15.743Z,12.10
2022-12-08T09:20:18.545Z,8.25
2022-12-08T09:23:23.761Z,8.47
2022-12-08T09:26:28.488Z,6.70
2022-12-08T09:29:36.005Z,8.60
2022-12-08T09:36:03.836Z,7.28
2022-12-08T09:39:07.187Z,8.80
2022-12-08T09:42:10.647Z,7.40
2022-12-08T09:45:15.766Z,7.20
2022-12-08T09:48:45.497Z,8.88
2022-12-08T09:51:48.458Z,7.50
2022-12-08T09:54:51.509Z,5.33
2022-12-08T09:58:03.012Z,9.37
2022-12-08T10:01:10.237Z,5.07
2022-12-08T10:04:35.453Z,6.35
2022-12-08T10:07:58.503Z,6.35
2022-12-08T10:11:12.654Z,5.50
2022-12-08T10:14:44.135Z,6.33
2022-12-08T10:17:50.326Z,7.32
2022-12-08T10:20:53.111Z,6.85
2022-12-08T10:24:04.221Z,5.70
2022-12-08T10:27:12.297Z,7.20
2022-12-08T10:30:18.454Z,5.37
2022-12-08T10:33:22.764Z,6.65
2022-12-08T10:36:58.683Z,7.45
2022-12-08T10:40:17.999Z,6.93
2022-12-08T10:43:26.013Z,6.70
2022-12-08T10:46:30.347Z,8.47
2022-12-08T10:49:36.237Z,7.53
2022-12-08T10:52:42.255Z,6.10
2022-12-08T10:56:07.589Z,8.48
2022-12-08T10:59:17.181Z,6.17
2022-12-08T11:02:20.928Z,6.87
2022-12-08T11:05:27.977Z,6.80
2022-12-08T11:08:31.121Z,5.82
2022-12-08T11:11:39.856Z,5.97
2022-12-08T11:14:42.864Z,9.20
2022-12-08T11:17:57.402Z,6.57
2022-12-08T11:21:07.712Z,6.82
2022-12-08T11:24:21.872Z,3.80
2022-12-08T11:27:25.002Z,6.40
2022-12-08T11:30:42.445Z,5.57
2022-12-08T11:33:47.523Z,6.67
2022-12-08T11:36:52.685Z,6.18
2022-12-08T11:39:59.518Z,6.22
2022-12-08T11:43:30.211Z,6.55
2022-12-08T11:46:41.299Z,7.50
2022-12-08T11:52:51.788Z,7.05
2022-12-08T11:55:58.699Z,6.30
2022-12-08T11:59:24.171Z,6.32
2022-12-08T12:02:30.086Z,3.73
2022-12-08T12:06:38.179Z,6.47
2022-12-08T12:09:38.221Z,7.32
2022-12-08T12:13:03.065Z,4.00
2022-12-08T12:16:36.669Z,5.68
2022-12-08T12:19:40.453Z,5.97
2022-12-08T12:22:47.348Z,6.43
2022-12-08T12:25:59.285Z,5.05
2022-12-08T12:29:18.818Z,6.10
2022-12-08T12:32:24.766Z,3.90
2022-12-08T12:35:41.323Z,6.60
2022-12-08T12:39:08.720Z,6.70
2022-12-08T12:42:34.032Z,3.90
2022-12-08T12:45:44.028Z,7.10
2022-12-08T12:48:46.745Z,8.65
2022-12-08T12:51:54.659Z,7.27
2022-12-08T12:54:57.225Z,7.20
2022-12-08T12:58:27.738Z,6.78
2022-12-08T13:01:43.670Z,6.30
2022-12-08T13:05:25.243Z,7.50
2022-12-08T13:08:28.614Z,6.40
2022-12-08T13:11:48.048Z,4.63
2022-12-08T13:14:51.871Z,7.35
2022-12-08T13:17:58.232Z,7.35
2022-12-08T13:21:03.919Z,6.95
2022-12-08T13:24:29.439Z,7.60
2022-12-08T13:27:34.321Z,2.93
2022-12-08T13:30:51.787Z,4.82
2022-12-08T13:33:54.719Z,7.95
2022-12-08T13:37:00.522Z,5.43
2022-12-08T13:40:10.851Z,8.13
2022-12-08T13:43:23.364Z,6.10
2022-12-08T13:57:16.685Z,5.33
2022-12-08T14:00:22.391Z,5.53
2022-12-08T14:03:25.491Z,7.35
2022-12-08T14:06:36.494Z,5.60
2022-12-08T14:09:40.741Z,5.43
2022-12-08T14:12:48.200Z,6.20
2022-12-08T14:15:51.207Z,6.00
2022-12-08T14:18:53.874Z,7.65
2022-12-08T14:22:23.165Z,7.95
2022-12-08T14:25:28.407Z,8.18
2022-12-08T14:28:33.696Z,16.67
2022-12-08T14:31:36.573Z,13.17
2022-12-08T14:34:41.187Z,9.40
2022-12-08T14:37:49.410Z,11.02
2022-12-08T14:41:08.079Z,9.05
2022-12-08T14:44:24.956Z,8.33
2022-12-08T14:47:33.007Z,8.67
2022-12-08T14:50:54.368Z,7.28
2022-12-08T14:54:01.267Z,9.07
2022-12-08T14:57:04.639Z,7.47
2022-12-08T15:00:11.481Z,7.50
2022-12-08T15:03:16.790Z,7.00
2022-12-08T15:06:22.945Z,7.62
2022-12-08T15:09:47.352Z,8.23
2022-12-08T15:12:59.640Z,12.77
2022-12-08T15:16:03.012Z,13.47
2022-12-08T15:19:19.879Z,10.63
2022-12-08T15:22:26.907Z,11.02
2022-12-08T15:25:30.193Z,10.80
2022-12-08T15:28:32.915Z,19.62
2022-12-08T15:31:35.971Z,15.40
2022-12-08T15:34:38.863Z,21.60
2022-12-08T15:37:42.794Z,17.92
2022-12-08T15:40:45.443Z,12.90
2022-12-08T15:43:48.488Z,9.57
2022-12-08T15:46:51.326Z,11.53
2022-12-08T15:49:54.655Z,18.37
2022-12-08T15:52:57.377Z,16.08
2022-12-08T15:59:31.595Z,16.83
2022-12-08T16:03:05.137Z,25.23
2022-12-08T16:06:50.808Z,23.73
2022-12-08T16:09:35.588Z,27.55
2022-12-08T16:16:29.060Z,16.33
2022-12-08T16:19:32.414Z,16.80
2022-12-08T16:29:23.388Z,17.12
2022-12-08T16:32:27.937Z,15.45
2022-12-08T16:35:33.600Z,11.60
2022-12-08T16:38:36.875Z,9.57
2022-12-08T16:41:58.360Z,8.82
2022-12-08T16:45:14.809Z,8.98
2022-12-08T16:48:17.494Z,11.68
2022-12-08T16:51:26.629Z,15.93
2022-12-08T16:54:30.119Z,21.27
2022-12-08T16:57:35.141Z,31.80
2022-12-08T17:00:38.455Z,18.42
2022-12-08T17:03:51.781Z,14.87
2022-12-08T17:07:05.763Z,14.87
2022-12-08T17:10:12.254Z,14.30
2022-12-08T17:13:17.517Z,15.13
2022-12-08T17:16:20.866Z,14.27
2022-12-08T17:19:23.564Z,16.37
2022-12-08T17:22:27.050Z,13.33
2022-12-08T17:25:30.398Z,14.13
2022-12-08T17:28:58.971Z,14.73
2022-12-08T17:31:56.713Z,15.40
2022-12-08T17:35:00.389Z,12.98
2022-12-08T17:38:03.281Z,12.63
2022-12-08T17:41:08.416Z,12.17
2022-12-08T17:44:18.631Z,41.90
2022-12-08T17:47:23.205Z,38.35
2022-12-08T17:50:26.088Z,19.98
2022-12-08T17:53:35.786Z,19.03
2022-12-08T17:56:40.932Z,20.10
2022-12-08T17:59:45.821Z,20.27
2022-12-08T18:02:48.789Z,19.00
2022-12-08T18:05:51.768Z,17.87
2022-12-08T18:08:55.777Z,18.20
2022-12-08T18:12:00.991Z,17.03
2022-12-08T18:15:10.682Z,16.35
2022-12-08T18:18:15.904Z,17.95
2022-12-08T18:21:23.396Z,16.75
2022-12-08T18:24:28.296Z,16.97
2022-12-08T18:27:31.342Z,18.73
2022-12-08T18:30:34.483Z,16.60
2022-12-08T18:33:39.811Z,17.12
2022-12-08T18:36:43.077Z,16.85
2022-12-08T18:39:48.067Z,18.10
2022-12-08T18:42:51.852Z,28.63
2022-12-08T18:46:04.599Z,19.73
2022-12-08T18:49:12.342Z,24.30
2022-12-08T18:52:18.971Z,29.73
2022-12-08T18:55:26.866Z,12.73
2022-12-08T18:58:30.206Z,14.07
2022-12-08T19:01:36.729Z,7.37
2022-12-08T19:04:41.171Z,5.68
2022-12-08T19:07:48.988Z,5.82
2022-12-08T19:10:52.731Z,8.20
2022-12-08T19:13:57.650Z,7.30
2022-12-08T19:17:01.906Z,9.90
2022-12-08T19:20:06.441Z,12.02
2022-12-08T19:23:15.846Z,12.48
2022-12-08T19:26:27.291Z,8.37
2022-12-08T19:29:30.769Z,12.30
2022-12-08T19:32:36.140Z,7.03
2022-12-08T19:35:40.800Z,12.23
2022-12-08T19:39:04.662Z,5.85
2022-12-08T19:42:38.796Z,7.47
2022-12-08T19:45:43.791Z,7.70
2022-12-08T19:48:47.515Z,9.30
2022-12-08T19:51:51.993Z,8.43
2022-12-08T19:54:57.987Z,7.15
2022-12-08T19:58:04.456Z,5.73
2022-12-08T20:01:11.395Z,6.20
2022-12-08T20:04:17.069Z,7.68
2022-12-08T20:07:23.030Z,8.80
2022-12-08T20:10:38.882Z,10.48
2022-12-08T20:13:42.327Z,14.97
2022-12-08T20:16:50.079Z,7.80
2022-12-08T20:19:53.724Z,7.60
2022-12-08T20:22:59.398Z,8.70
2022-12-08T20:26:12.344Z,5.80
2022-12-08T20:29:17.761Z,6.97
2022-12-08T20:32:23.231Z,7.37
2022-12-08T20:35:27.734Z,6.82
2022-12-08T20:38:32.525Z,7.97
2022-12-08T20:41:39.228Z,8.80
2022-12-08T20:44:44.996Z,8.87
2022-12-08T20:47:49.154Z,8.10
2022-12-08T20:50:53.456Z,5.95
2022-12-08T20:54:00.209Z,8.10
2022-12-08T20:57:03.903Z,9.55
2022-12-08T21:00:08.359Z,9.00
2022-12-08T21:03:14.320Z,6.47
2022-12-08T21:06:23.641Z,6.97
2022-12-08T21:09:26.515Z,9.77
2022-12-08T21:12:30.687Z,8.57
2022-12-08T21:15:33.847Z,9.80
2022-12-08T21:18:39.708Z,11.03
2022-12-08T21:21:43.026Z,7.75
2022-12-08T21:24:46.093Z,9.23
2022-12-08T21:27:49.928Z,9.98
2022-12-08T21:30:53.380Z,8.50
2022-12-08T21:33:56.381Z,10.20
2022-12-08T21:36:59.967Z,10.07
2022-12-08T21:40:03.397Z,8.52
2022-12-08T21:43:06.963Z,7.97
2022-12-08T21:46:17.348Z,8.23
2022-12-08T21:49:21.190Z,10.83
2022-12-08T21:52:24.494Z,10.43
2022-12-08T21:55:27.706Z,7.18
2022-12-08T21:58:32.759Z,11.07
2022-12-08T22:01:36.113Z,8.50
2022-12-08T22:04:39.719Z,8.27
2022-12-08T22:07:42.604Z,5.55
2022-12-08T22:10:49.046Z,6.95
2022-12-08T22:13:52.086Z,8.90
2022-12-08T22:16:55.193Z,10.33
2022-12-08T22:19:59.449Z,11.10
2022-12-08T22:23:02.721Z,11.07
2022-12-08T22:26:06.700Z,8.18
2022-12-08T22:29:09.968Z,11.57
2022-12-08T22:32:12.900Z,11.63
2022-12-08T22:35:16.019Z,8.57
2022-12-08T22:38:19.121Z,10.18
2022-12-08T22:41:25.471Z,8.02
2022-12-08T22:44:29.340Z,14.45
2022-12-08T22:47:32.408Z,10.20
2022-12-08T22:50:36.001Z,9.77
2022-12-08T22:53:41.860Z,12.27
2022-12-08T22:56:44.958Z,11.75
2022-12-08T22:59:50.447Z,12.20
2022-12-08T23:02:53.470Z,13.03
2022-12-08T23:05:57.526Z,12.80
2022-12-08T23:09:00.669Z,11.60
2022-12-08T23:12:04.912Z,11.43
2022-12-08T23:15:08.244Z,8.68
2022-12-08T23:18:15.834Z,9.50
2022-12-08T23:21:19.845Z,13.13
2022-12-08T23:24:23.110Z,11.48
2022-12-08T23:27:25.791Z,11.30
2022-12-08T23:30:28.941Z,10.65
2022-12-08T23:33:31.836Z,7.47
2022-12-08T23:36:34.768Z,11.83
2022-12-08T23:39:37.641Z,11.88
2022-12-08T23:42:40.619Z,12.95
2022-12-08T23:45:43.406Z,14.55
2022-12-08T23:48:47.022Z,7.73
2022-12-08T23:51:50.867Z,20.33
2022-12-08T23:54:54.778Z,14.63
2022-12-08T23:57:57.437Z,14.75
